Time;durP1;ratioP1;P1;durP2;ratioP2;P2;SDS_P1;SDS_P2;PMS_P1;PMS_P2;Temp;Humidity;BMP_temperature;BMP_pressure;BME280_temperature;BME280_humidity;BME280_pressure;Samples;Min_cycle;Max_cycle;Signal;HPM_P1;HPM_P2
2023/08/07 00:00:21;;;;;;;0.00;0.00;;;;;;;14.81;100.00;101369.38;5013233;28;20028;-73
2023/08/07 00:02:46;;;;;;;0.00;0.00;;;;;;;14.67;100.00;101387.41;5013044;28;20026;-74
2023/08/07 00:05:12;;;;;;;0.00;0.00;;;;;;;14.52;100.00;101393.91;5012136;28;20030;-74
2023/08/07 00:07:37;;;;;;;0.00;0.00;;;;;;;14.19;100.00;101373.59;5013315;28;20057;-75
2023/08/07 00:10:03;;;;;;;0.00;0.00;;;;;;;14.01;100.00;101375.91;5012046;28;20073;-74
2023/08/07 00:12:28;;;;;;;0.00;0.00;;;;;;;13.79;100.00;101381.25;5013197;28;20080;-74
2023/08/07 00:14:54;;;;;;;0.00;0.00;;;;;;;13.71;100.00;101386.78;5013193;28;20029;-74
2023/08/07 00:17:19;;;;;;;0.00;0.00;;;;;;;13.63;100.00;101388.78;5012983;28;20030;-74
2023/08/07 00:19:44;;;;;;;0.00;0.00;;;;;;;13.64;100.00;101385.88;5013009;28;20096;-75
2023/08/07 00:22:10;;;;;;;0.00;0.00;;;;;;;13.70;100.00;101395.94;5012428;28;20054;-75
2023/08/07 00:24:35;;;;;;;0.00;0.00;;;;;;;13.80;100.00;101401.91;5013112;28;20026;-75
2023/08/07 00:27:01;;;;;;;0.00;0.00;;;;;;;13.89;100.00;101399.06;5013018;28;20550;-75
2023/08/07 00:29:26;;;;;;;0.00;0.00;;;;;;;13.95;100.00;101404.56;5012913;28;20495;-75
2023/08/07 00:31:52;;;;;;;0.00;0.00;;;;;;;14.00;100.00;101393.16;5012835;28;20498;-75
2023/08/07 00:34:17;;;;;;;0.00;0.00;;;;;;;14.10;100.00;101400.97;5012649;28;20030;-74
2023/08/07 00:36:42;;;;;;;0.00;0.00;;;;;;;14.16;100.00;101381.25;5012352;28;20022;-74
2023/08/07 00:39:08;;;;;;;0.00;0.00;;;;;;;14.26;100.00;101374.50;5012704;28;20084;-74
2023/08/07 00:41:33;;;;;;;0.00;0.00;;;;;;;14.39;100.00;101362.94;5011718;28;20122;-73
2023/08/07 00:43:59;;;;;;;0.00;0.00;;;;;;;14.44;100.00;101374.03;5012122;28;20108;-75
2023/08/07 00:46:24;;;;;;;0.00;0.00;;;;;;;14.52;100.00;101370.38;4992923;28;20038;-74
2023/08/07 00:48:51;;;;;;;0.00;0.00;;;;;;;14.53;100.00;101366.63;5005690;28;20041;-74
2023/08/07 00:51:17;;;;;;;0.00;0.00;;;;;;;14.48;100.00;101378.06;5012284;28;20123;-74
2023/08/07 00:53:42;;;;;;;0.00;0.00;;;;;;;14.51;100.00;101368.69;5012112;28;20018;-72
2023/08/07 00:56:08;;;;;;;0.00;0.00;;;;;;;14.53;100.00;101379.34;5012317;28;20030;-74
2023/08/07 00:58:33;;;;;;;0.00;0.00;;;;;;;14.52;100.00;101366.81;5012294;28;20018;-74
2023/08/07 01:00:59;;;;;;;0.00;0.00;;;;;;;14.58;100.00;101371.47;5012031;28;20030;-73
2023/08/07 01:03:24;;;;;;;0.00;0.00;;;;;;;14.61;100.00;101373.78;5012175;28;20040;-72
2023/08/07 01:05:50;;;;;;;0.00;0.00;;;;;;;14.63;100.00;101369.84;5012156;28;20052;-73
2023/08/07 01:08:15;;;;;;;0.00;0.00;;;;;;;14.62;100.00;101357.34;5011915;28;20105;-75
2023/08/07 01:10:59;;;;;;;0.00;0.00;;;;;;;14.65;100.00;101356.97;5012178;28;20368;-73
2023/08/07 01:13:37;;;;;;;0.00;0.00;;;;;;;14.68;100.00;101361.97;5010866;28;20058;-74
2023/08/07 01:16:12;;;;;;;0.00;0.00;;;;;;;14.68;100.00;101364.69;5010739;28;20387;-73
2023/08/07 01:18:38;;;;;;;0.00;0.00;;;;;;;14.70;100.00;101378.88;5010877;28;20029;-73
2023/08/07 01:21:04;;;;;;;0.00;0.00;;;;;;;14.73;100.00;101383.06;5012187;28;20025;-73
2023/08/07 01:23:29;;;;;;;0.00;0.00;;;;;;;14.77;100.00;101369.97;5011823;28;20403;-73
2023/08/07 01:25:54;;;;;;;0.00;0.00;;;;;;;14.81;100.00;101382.09;5011828;28;20026;-74
2023/08/07 01:28:38;;;;;;;0.00;0.00;;;;;;;14.79;100.00;101376.03;5011809;28;20026;-73
2023/08/07 01:31:09;;;;;;;0.00;0.00;;;;;;;14.79;100.00;101381.44;5010728;28;20529;-73
2023/08/07 01:33:40;;;;;;;0.00;0.00;;;;;;;14.80;100.00;101383.97;4978492;28;20085;-76
2023/08/07 01:36:06;;;;;;;0.00;0.00;;;;;;;14.77;100.00;101378.94;5010673;28;20042;-73
2023/08/07 01:38:32;;;;;;;0.10;0.00;;;;;;;14.74;100.00;101367.66;5010922;28;20030;-73
2023/08/07 01:40:58;;;;;;;0.00;0.00;;;;;;;14.79;100.00;101362.47;5011701;28;20026;-73
2023/08/07 01:43:24;;;;;;;0.00;0.00;;;;;;;14.80;100.00;101375.00;5010340;28;20029;-73
2023/08/07 01:45:49;;;;;;;0.00;0.00;;;;;;;14.80;100.00;101372.31;5010823;28;20475;-74
2023/08/07 01:48:14;;;;;;;0.00;0.00;;;;;;;14.78;100.00;101371.66;5010316;28;20022;-74
2023/08/07 01:50:40;;;;;;;0.00;0.00;;;;;;;14.78;100.00;101366.25;5011868;28;20029;-73
2023/08/07 01:53:05;;;;;;;0.00;0.00;;;;;;;14.78;100.00;101364.34;5012685;28;20040;-73
2023/08/07 01:55:31;;;;;;;0.00;0.00;;;;;;;14.78;100.00;101372.47;5015744;28;20038;-74
2023/08/07 01:57:56;;;;;;;0.00;0.00;;;;;;;14.72;100.00;101370.56;5015231;28;20080;-76
2023/08/07 02:00:22;;;;;;;0.00;0.00;;;;;;;14.73;100.00;101385.78;5015574;28;20030;-73
2023/08/07 02:02:47;;;;;;;0.00;0.00;;;;;;;14.75;100.00;101382.88;5015684;28;20113;-73
2023/08/07 02:05:13;;;;;;;0.00;0.00;;;;;;;14.79;100.00;101381.44;5014368;28;20428;-73
2023/08/07 02:07:39;;;;;;;0.00;0.00;;;;;;;14.79;100.00;101384.16;5015313;28;20084;-74
2023/08/07 02:10:04;;;;;;;0.00;0.00;;;;;;;14.81;100.00;101376.69;5006711;28;20025;-73
2023/08/07 02:12:32;;;;;;;0.00;0.00;;;;;;;14.81;100.00;101377.50;4996029;28;20030;-73
2023/08/07 02:14:58;;;;;;;0.00;0.00;;;;;;;14.83;100.00;101374.63;4994657;28;20062;-74
2023/08/07 02:17:25;;;;;;;0.00;0.00;;;;;;;14.77;100.00;101386.22;4996559;28;20018;-74
2023/08/07 02:19:50;;;;;;;0.00;0.00;;;;;;;14.76;100.00;101390.81;5014963;28;20056;-74
2023/08/07 02:22:16;;;;;;;0.00;0.00;;;;;;;14.80;100.00;101375.84;5014964;28;20452;-75
2023/08/07 02:24:41;;;;;;;0.00;0.00;;;;;;;14.83;100.00;101391.69;5013627;28;20022;-73
2023/08/07 02:27:06;;;;;;;0.00;0.00;;;;;;;14.83;100.00;101385.44;5013558;28;20025;-73
2023/08/07 02:29:34;;;;;;;0.00;0.00;;;;;;;14.79;100.00;101395.81;5013776;28;20097;-75
2023/08/07 02:32:03;;;;;;;0.00;0.00;;;;;;;14.70;100.00;101392.44;5014727;28;20037;-74
2023/08/07 02:34:29;;;;;;;0.00;0.00;;;;;;;14.70;100.00;101380.75;5014866;28;20033;-74
2023/08/07 02:36:54;;;;;;;0.00;0.00;;;;;;;14.65;100.00;101388.63;5014852;28;20026;-74
2023/08/07 02:39:20;;;;;;;0.00;0.00;;;;;;;14.63;100.00;101394.22;5014641;28;20479;-74
2023/08/07 02:41:45;;;;;;;0.00;0.00;;;;;;;14.69;100.00;101407.03;5014718;28;20030;-74
2023/08/07 02:44:11;;;;;;;0.00;0.00;;;;;;;14.62;100.00;101422.38;5012350;28;20076;-74
2023/08/07 02:46:36;;;;;;;0.00;0.00;;;;;;;14.31;100.00;101447.03;4995454;28;20049;-75
2023/08/07 02:49:01;;;;;;;0.00;0.00;;;;;;;14.06;100.00;101451.97;4995655;28;20450;-74
2023/08/07 02:51:27;;;;;;;0.00;0.00;;;;;;;13.87;100.00;101456.06;5012718;28;20388;-74
2023/08/07 02:53:52;;;;;;;0.00;0.00;;;;;;;13.70;100.00;101466.28;5014634;28;20026;-74
2023/08/07 02:56:18;;;;;;;0.00;0.00;;;;;;;13.60;100.00;101465.72;5014774;28;20025;-74
2023/08/07 02:58:43;;;;;;;0.00;0.00;;;;;;;13.53;100.00;101462.94;5014615;28;20026;-75
2023/08/07 03:01:08;;;;;;;0.00;0.00;;;;;;;13.59;100.00;101462.19;5014530;28;20026;-75
2023/08/07 03:03:34;;;;;;;0.00;0.00;;;;;;;13.63;100.00;101475.31;5014334;28;20048;-75
2023/08/07 03:05:59;;;;;;;0.00;0.00;;;;;;;13.60;100.00;101479.22;5012168;28;20080;-76
2023/08/07 03:08:25;;;;;;;0.00;0.00;;;;;;;13.56;100.00;101467.09;5014607;28;20345;-74
2023/08/07 03:10:55;;;;;;;0.00;0.00;;;;;;;13.53;100.00;101465.63;5014232;28;20034;-74
2023/08/07 03:13:21;;;;;;;0.00;0.00;;;;;;;13.57;100.00;101466.09;5002360;28;20097;-75
2023/08/07 03:15:49;;;;;;;0.00;0.00;;;;;;;13.60;100.00;101471.13;4994794;28;20114;-74
2023/08/07 03:18:14;;;;;;;0.00;0.00;;;;;;;13.61;100.00;101470.09;5013611;28;20030;-74
2023/08/07 03:20:39;;;;;;;0.00;0.00;;;;;;;13.64;100.00;101467.03;4994794;28;20022;-74
2023/08/07 03:23:05;;;;;;;0.00;0.00;;;;;;;13.67;100.00;101463.94;5007916;28;20046;-74
2023/08/07 03:25:30;;;;;;;0.00;0.00;;;;;;;13.67;100.00;101466.66;5012540;28;20022;-73
2023/08/07 03:27:56;;;;;;;0.00;0.00;;;;;;;13.75;100.00;101447.63;5014257;28;20033;-74
2023/08/07 03:30:21;;;;;;;0.00;0.00;;;;;;;13.74;100.00;101445.09;5013906;28;20029;-74
2023/08/07 03:32:46;;;;;;;0.00;0.00;;;;;;;13.78;100.00;101451.81;5013819;28;20042;-74
2023/08/07 03:35:12;;;;;;;0.00;0.00;;;;;;;13.77;100.00;101436.59;5014032;28;20026;-75
2023/08/07 03:37:37;;;;;;;0.00;0.00;;;;;;;13.80;100.00;101431.66;5013721;28;20371;-73
2023/08/07 03:40:03;;;;;;;0.00;0.00;;;;;;;13.84;100.00;101441.06;5013646;28;20022;-74
2023/08/07 03:42:28;;;;;;;0.00;0.00;;;;;;;13.86;100.00;101437.34;5013708;28;20041;-73
2023/08/07 03:44:54;;;;;;;0.00;0.00;;;;;;;13.95;100.00;101444.31;4993007;28;20026;-73
2023/08/07 03:47:19;;;;;;;0.00;0.00;;;;;;;13.98;100.00;101438.50;5000354;28;20091;-74
2023/08/07 03:49:45;;;;;;;0.00;0.00;;;;;;;14.04;100.00;101435.06;5013677;28;20053;-73
2023/08/07 03:52:10;;;;;;;0.00;0.00;;;;;;;14.07;100.00;101429.28;5013318;28;20041;-73
2023/08/07 03:54:36;;;;;;;0.00;0.00;;;;;;;14.14;100.00;101421.22;5013428;28;20065;-73
2023/08/07 03:57:01;;;;;;;0.00;0.00;;;;;;;14.16;100.00;101417.28;5013696;28;20026;-73
2023/08/07 03:59:27;;;;;;;0.00;0.00;;;;;;;14.20;100.00;101418.59;5014616;28;20224;-75
2023/08/07 04:01:52;;;;;;;0.00;0.00;;;;;;;14.23;100.00;101411.94;5023662;28;20026;-74
2023/08/07 04:04:18;;;;;;;0.00;0.00;;;;;;;14.28;100.00;101407.63;5005772;28;20027;-74
2023/08/07 04:06:43;;;;;;;0.00;0.00;;;;;;;14.36;100.00;101419.38;5022428;28;20099;-74
2023/08/07 04:09:10;;;;;;;0.00;0.00;;;;;;;14.45;100.00;101410.06;5017482;28;20053;-73
2023/08/07 04:11:35;;;;;;;0.00;0.00;;;;;;;14.47;100.00;101413.44;5013416;28;20049;-74
2023/08/07 04:14:01;;;;;;;0.00;0.00;;;;;;;14.50;100.00;101413.88;5013455;28;20021;-73
2023/08/07 04:16:26;;;;;;;0.00;0.00;;;;;;;14.53;100.00;101407.28;5014577;28;20042;-74
2023/08/07 04:18:51;;;;;;;0.00;0.00;;;;;;;14.52;100.00;101405.56;5013105;28;20105;-74
2023/08/07 04:21:17;;;;;;;0.00;0.00;;;;;;;14.55;100.00;101405.22;5013114;28;20109;-74
2023/08/07 04:23:42;;;;;;;0.00;0.00;;;;;;;14.53;100.00;101415.41;5013165;28;20050;-74
2023/08/07 04:26:08;;;;;;;0.00;0.00;;;;;;;14.53;100.00;101420.81;5013436;28;20033;-73
2023/08/07 04:28:33;;;;;;;0.00;0.00;;;;;;;14.52;100.00;101413.69;5013549;28;20025;-74
2023/08/07 04:30:59;;;;;;;0.00;0.00;;;;;;;14.52;100.00;101408.28;5012312;28;20135;-74
2023/08/07 04:33:25;;;;;;;0.00;0.00;;;;;;;14.59;100.00;101406.50;5011792;28;20030;-74
2023/08/07 04:35:50;;;;;;;0.00;0.00;;;;;;;14.62;100.00;101411.53;5012017;28;20048;-74
2023/08/07 04:38:16;;;;;;;0.00;0.00;;;;;;;14.59;100.00;101422.75;5011814;28;20120;-75
2023/08/07 04:40:48;;;;;;;0.00;0.00;;;;;;;14.63;100.00;101415.91;5010677;28;20112;-74
2023/08/07 04:43:14;;;;;;;0.00;0.00;;;;;;;14.64;100.00;101422.16;5003697;28;20035;-74
2023/08/07 04:45:40;;;;;;;0.00;0.00;;;;;;;14.64;100.00;101414.03;4991697;28;20019;-74
2023/08/07 04:48:09;;;;;;;0.00;0.00;;;;;;;14.63;100.00;101428.63;5007676;28;20045;-73
2023/08/07 04:50:34;;;;;;;0.00;0.00;;;;;;;14.64;100.00;101430.28;5011445;28;20474;-73
2023/08/07 04:53:00;;;;;;;0.00;0.00;;;;;;;14.63;100.00;101440.28;5011660;28;20030;-73
2023/08/07 04:55:25;;;;;;;0.00;0.00;;;;;;;14.64;100.00;101435.69;5011647;28;20246;-73
2023/08/07 04:57:54;;;;;;;0.00;0.00;;;;;;;14.63;100.00;101445.72;5020258;28;20437;-74
2023/08/07 05:00:19;;;;;;;0.00;0.00;;;;;;;14.61;100.00;101436.09;5002175;28;20089;-75
2023/08/07 05:02:45;;;;;;;0.00;0.00;;;;;;;14.62;100.00;101438.63;4990772;28;20034;-74
2023/08/07 05:05:10;;;;;;;0.00;0.00;;;;;;;14.65;100.00;101431.97;5004669;28;20034;-74
2023/08/07 05:07:35;;;;;;;0.00;0.00;;;;;;;14.65;100.00;101432.81;5011359;28;20025;-74
2023/08/07 05:10:04;;;;;;;0.00;0.00;;;;;;;14.62;100.00;101441.34;5011234;28;20031;-74
2023/08/07 05:12:29;;;;;;;0.00;0.00;;;;;;;14.63;100.00;101440.28;5012228;28;20085;-74
2023/08/07 05:14:55;;;;;;;0.00;0.00;;;;;;;14.67;100.00;101452.44;4999170;28;20094;-74
2023/08/07 05:17:20;;;;;;;0.00;0.00;;;;;;;14.66;100.00;101449.91;4992291;28;20030;-74
2023/08/07 05:19:45;;;;;;;0.00;0.00;;;;;;;14.71;100.00;101436.63;5009323;28;20028;-74
2023/08/07 05:22:11;;;;;;;0.00;0.00;;;;;;;14.72;100.00;101454.56;5000552;28;20025;-74
2023/08/07 05:24:39;;;;;;;0.00;0.00;;;;;;;14.74;100.00;101457.91;5010992;28;20069;-74
2023/08/07 05:27:08;;;;;;;0.00;0.00;;;;;;;14.81;100.00;101452.56;5011049;28;20034;-74
2023/08/07 05:29:34;;;;;;;0.00;0.00;;;;;;;14.88;100.00;101453.44;5017371;28;20018;-74
2023/08/07 05:32:00;;;;;;;0.00;0.00;;;;;;;14.83;100.00;101459.44;5018064;28;20036;-74
2023/08/07 05:34:25;;;;;;;0.00;0.00;;;;;;;14.87;100.00;101451.75;5016652;28;20105;-74
2023/08/07 05:36:50;;;;;;;0.00;0.00;;;;;;;14.92;100.00;101454.72;5019982;28;20041;-74
2023/08/07 05:39:16;;;;;;;0.00;0.00;;;;;;;14.92;100.00;101454.72;5019361;28;20030;-74
2023/08/07 05:41:41;;;;;;;0.00;0.00;;;;;;;15.01;100.00;101458.97;5018507;28;20546;-74
2023/08/07 05:44:07;;;;;;;0.00;0.00;;;;;;;15.06;100.00;101463.78;5018466;28;20060;-75
2023/08/07 05:46:32;;;;;;;0.03;0.03;;;;;;;15.17;100.00;101463.28;5018531;28;20086;-74
2023/08/07 05:48:57;;;;;;;0.00;0.00;;;;;;;15.26;100.00;101461.25;5018002;28;20029;-74
2023/08/07 05:51:23;;;;;;;0.00;0.00;;;;;;;15.27;100.00;101471.03;5019517;28;20128;-73
2023/08/07 05:53:48;;;;;;;0.00;0.00;;;;;;;15.33;100.00;101478.41;5018374;28;20030;-74
2023/08/07 05:56:14;;;;;;;0.00;0.00;;;;;;;15.35;100.00;101468.22;5019589;28;20029;-74
2023/08/07 05:58:39;;;;;;;0.00;0.00;;;;;;;15.37;100.00;101475.09;5016092;28;20495;-74
2023/08/07 06:01:05;;;;;;;0.00;0.00;;;;;;;15.39;100.00;101472.19;5010394;28;20040;-74
2023/08/07 06:03:31;;;;;;;0.00;0.00;;;;;;;15.47;100.00;101468.47;5017905;28;20025;-75
2023/08/07 06:05:57;;;;;;;0.00;0.00;;;;;;;15.54;100.00;101481.06;5018640;28;20030;-74
2023/08/07 06:08:22;;;;;;;0.00;0.00;;;;;;;15.63;100.00;101472.75;5017941;28;20581;-74
2023/08/07 06:10:47;;;;;;;0.00;0.00;;;;;;;15.97;100.00;101480.88;5018682;28;20044;-74
2023/08/07 06:13:13;;;;;;;0.00;0.00;;;;;;;16.23;100.00;101474.72;5017755;28;20495;-74
2023/08/07 06:15:38;;;;;;;0.00;0.00;;;;;;;16.35;100.00;101476.84;5017425;28;20028;-74
2023/08/07 06:18:03;;;;;;;0.00;0.00;;;;;;;16.33;100.00;101487.94;5017286;28;20030;-74
2023/08/07 06:20:29;;;;;;;0.00;0.00;;;;;;;16.17;100.00;101485.59;5017015;28;20392;-73
2023/08/07 06:22:54;;;;;;;0.00;0.00;;;;;;;16.30;100.00;101485.63;5017067;28;20064;-74
2023/08/07 06:25:19;;;;;;;0.00;0.00;;;;;;;16.74;100.00;101492.41;5015443;28;20028;-75
2023/08/07 06:27:45;;;;;;;0.00;0.00;;;;;;;17.53;100.00;101486.13;5016847;28;20048;-74
2023/08/07 06:30:11;;;;;;;0.00;0.00;;;;;;;17.73;100.00;101480.66;5010516;28;20042;-74
2023/08/07 06:32:36;;;;;;;0.00;0.00;;;;;;;17.71;100.00;101482.75;5017245;28;20060;-74
2023/08/07 06:35:03;;;;;;;0.00;0.00;;;;;;;18.21;100.00;101482.19;5017089;28;20085;-76
2023/08/07 06:37:28;;;;;;;0.00;0.00;;;;;;;18.13;100.00;101483.25;5016951;28;20068;-74
2023/08/07 06:39:53;;;;;;;0.00;0.00;;;;;;;18.81;100.00;101481.84;5015167;28;20057;-75
2023/08/07 06:42:19;;;;;;;0.00;0.00;;;;;;;19.34;100.00;101497.78;5013357;28;20042;-74
2023/08/07 06:44:44;;;;;;;0.00;0.00;;;;;;;18.74;100.00;101492.75;5013597;28;20026;-76
2023/08/07 06:47:10;;;;;;;0.00;0.00;;;;;;;18.10;100.00;101497.31;5010719;28;20022;-74
2023/08/07 06:49:35;;;;;;;0.00;0.00;;;;;;;17.54;100.00;101500.59;5013716;28;20076;-74
2023/08/07 06:52:02;;;;;;;0.00;0.00;;;;;;;17.01;100.00;101503.31;5013919;28;20033;-74
2023/08/07 06:54:27;;;;;;;0.00;0.00;;;;;;;17.93;100.00;101501.56;5012870;28;20508;-74
2023/08/07 06:56:52;;;;;;;0.00;0.00;;;;;;;18.98;100.00;101504.78;5011793;28;20061;-73
2023/08/07 06:59:18;;;;;;;0.00;0.00;;;;;;;19.64;100.00;101497.06;5012648;28;20095;-74
2023/08/07 07:01:43;;;;;;;0.00;0.00;;;;;;;20.29;100.00;101499.25;5012489;28;20053;-74
2023/08/07 07:04:09;;;;;;;0.00;0.00;;;;;;;20.81;96.29;101505.91;5010045;28;20030;-74
2023/08/07 07:06:34;;;;;;;0.00;0.00;;;;;;;21.65;94.67;101511.25;4992739;28;20042;-74
2023/08/07 07:08:59;;;;;;;0.00;0.00;;;;;;;21.88;91.89;101520.50;4993933;28;20677;-74
2023/08/07 07:11:25;;;;;;;0.00;0.00;;;;;;;22.41;87.44;101515.84;5010150;28;20014;-74
2023/08/07 07:13:51;;;;;;;0.00;0.00;;;;;;;22.78;86.33;101514.38;5013295;28;20034;-74
2023/08/07 07:16:18;;;;;;;3.60;0.00;;;;;;;22.95;85.81;101519.88;5013252;28;20064;-73
2023/08/07 07:18:43;;;;;;;0.00;0.00;;;;;;;23.29;85.92;101528.16;5012608;28;20029;-75
2023/08/07 07:21:08;;;;;;;0.00;0.00;;;;;;;23.34;84.72;101530.16;5012863;28;20032;-75
2023/08/07 07:23:34;;;;;;;0.00;0.00;;;;;;;23.18;82.67;101520.84;5012972;28;20121;-75
2023/08/07 07:25:59;;;;;;;0.00;0.00;;;;;;;22.55;84.51;101529.03;5013568;28;20101;-75
2023/08/07 07:28:24;;;;;;;0.00;0.00;;;;;;;21.63;87.83;101529.81;5013430;28;20148;-76
2023/08/07 07:30:50;;;;;;;0.00;0.00;;;;;;;21.48;86.66;101529.47;5013874;28;20029;-76
2023/08/07 07:33:16;;;;;;;0.00;0.00;;;;;;;21.61;86.83;101531.97;5012563;28;20053;-76
2023/08/07 07:35:42;;;;;;;0.00;0.00;;;;;;;22.11;82.90;101539.63;5012895;28;20088;-76
2023/08/07 07:38:07;;;;;;;0.00;0.00;;;;;;;22.51;80.60;101540.75;5012486;28;20101;-76
2023/08/07 07:40:34;;;;;;;0.00;0.00;;;;;;;22.61;80.52;101531.88;5012765;28;20030;-76
2023/08/07 07:42:59;;;;;;;0.00;0.00;;;;;;;22.53;82.41;101542.16;5012800;28;20018;-75
2023/08/07 07:45:25;;;;;;;0.00;0.00;;;;;;;23.29;80.44;101550.13;5012038;28;20460;-76
2023/08/07 07:47:50;;;;;;;0.00;0.00;;;;;;;23.35;79.31;101540.88;5012178;28;20103;-76
2023/08/07 07:50:16;;;;;;;0.00;0.00;;;;;;;23.27;79.72;101546.81;5012110;28;20036;-75
2023/08/07 07:52:41;;;;;;;0.00;0.00;;;;;;;23.66;78.04;101546.84;5012470;28;20029;-75
2023/08/07 07:55:09;;;;;;;0.00;0.00;;;;;;;23.18;80.51;101548.31;5012533;28;20033;-76
2023/08/07 07:57:34;;;;;;;0.00;0.00;;;;;;;22.76;80.42;101549.47;5013058;28;20084;-77
2023/08/07 08:00:00;;;;;;;0.00;0.00;;;;;;;22.81;76.94;101554.22;5012379;28;20586;-76
2023/08/07 08:02:26;;;;;;;0.00;0.00;;;;;;;23.32;76.80;101557.03;5012250;28;20427;-76
2023/08/07 08:04:52;;;;;;;0.00;0.00;;;;;;;23.84;77.19;101560.34;5012308;28;20092;-75
2023/08/07 08:07:17;;;;;;;0.00;0.00;;;;;;;23.82;75.22;101567.19;5012522;28;20085;-76
2023/08/07 08:09:43;;;;;;;0.00;0.00;;;;;;;24.19;71.62;101577.59;5027301;28;20026;-76
2023/08/07 08:12:09;;;;;;;0.00;0.00;;;;;;;23.33;73.94;101573.28;5012810;28;20121;-77
2023/08/07 08:14:35;;;;;;;0.00;0.00;;;;;;;23.37;77.87;101568.94;5012510;28;20037;-76
2023/08/07 08:17:01;;;;;;;0.00;0.00;;;;;;;22.32;78.25;101568.34;5011216;28;20026;-76
2023/08/07 08:19:26;;;;;;;0.00;0.00;;;;;;;22.20;79.84;101564.00;5012132;28;20080;-76
2023/08/07 08:21:52;;;;;;;0.00;0.00;;;;;;;21.82;80.20;101582.59;5012296;28;20033;-76
2023/08/07 08:24:18;;;;;;;0.00;0.00;;;;;;;22.44;80.24;101576.56;5012027;28;20053;-76
2023/08/07 08:26:43;;;;;;;0.00;0.00;;;;;;;22.30;79.32;101591.59;5012191;28;20101;-76
2023/08/07 08:29:09;;;;;;;0.00;0.00;;;;;;;22.91;78.10;101592.00;5012345;28;20042;-76
2023/08/07 08:31:34;;;;;;;0.00;0.00;;;;;;;23.63;77.02;101599.59;5010813;28;20057;-76
2023/08/07 08:34:00;;;;;;;0.00;0.00;;;;;;;24.20;72.80;101599.34;5011952;28;20765;-77
2023/08/07 08:36:25;;;;;;;0.00;0.00;;;;;;;24.08;73.90;101598.63;5030811;28;20091;-77
2023/08/07 08:38:51;;;;;;;0.00;0.00;;;;;;;23.62;73.81;101600.69;5031393;28;20136;-76
2023/08/07 08:41:17;;;;;;;0.00;0.00;;;;;;;24.23;77.22;101598.00;5016882;28;20094;-76
2023/08/07 08:43:43;;;;;;;0.00;0.00;;;;;;;24.00;74.50;101610.06;5009945;28;20030;-76
2023/08/07 08:46:08;;;;;;;0.00;0.00;;;;;;;23.13;73.09;101612.19;5015578;28;20637;-75
2023/08/07 08:48:38;;;;;;;0.00;0.00;;;;;;;23.35;76.44;101609.56;5011844;28;20040;-75
2023/08/07 08:51:04;;;;;;;0.00;0.00;;;;;;;23.38;76.53;101603.59;5012275;28;20037;-76
2023/08/07 08:53:30;;;;;;;0.00;0.00;;;;;;;23.51;71.60;101623.56;5011703;28;20788;-75
2023/08/07 08:55:55;;;;;;;0.10;0.00;;;;;;;23.45;69.93;101608.91;5013422;28;20026;-78
2023/08/07 08:58:21;;;;;;;0.00;0.00;;;;;;;23.60;71.68;101616.56;5011757;28;20425;-75
2023/08/07 09:00:47;;;;;;;0.03;0.00;;;;;;;23.75;71.33;101625.09;5026454;28;20054;-75
2023/08/07 09:03:13;;;;;;;0.00;0.00;;;;;;;23.88;70.90;101624.75;5010684;28;20037;-75
2023/08/07 09:05:39;;;;;;;0.00;0.00;;;;;;;24.00;72.83;101621.06;5010379;28;20032;-76
2023/08/07 09:08:05;;;;;;;0.00;0.00;;;;;;;24.00;74.38;101621.88;5009376;28;20044;-76
2023/08/07 09:10:32;;;;;;;0.00;0.00;;;;;;;24.80;74.37;101619.63;5011165;28;20056;-75
2023/08/07 09:13:01;;;;;;;0.00;0.00;;;;;;;25.42;68.55;101623.84;5011007;28;20113;-76
2023/08/07 09:15:27;;;;;;;0.00;0.00;;;;;;;25.35;69.58;101624.06;4991886;28;20037;-76
2023/08/07 09:17:54;;;;;;;0.00;0.00;;;;;;;25.32;66.90;101627.34;5009860;28;20038;-75
2023/08/07 09:20:20;;;;;;;0.00;0.00;;;;;;;25.28;68.34;101630.91;5010080;28;20164;-76
2023/08/07 09:22:46;;;;;;;0.00;0.00;;;;;;;25.30;66.90;101628.69;5011202;28;20412;-76
2023/08/07 09:25:11;;;;;;;0.00;0.00;;;;;;;25.11;70.72;101626.28;5011469;28;20172;-75
2023/08/07 09:27:38;;;;;;;0.00;0.00;;;;;;;25.34;68.55;101629.84;5011545;28;20109;-76
2023/08/07 09:30:06;;;;;;;0.00;0.00;;;;;;;25.16;68.05;101631.88;5010039;28;20053;-75
2023/08/07 09:32:31;;;;;;;0.00;0.00;;;;;;;25.05;64.59;101632.84;5011440;28;20034;-75
2023/08/07 09:34:56;;;;;;;0.00;0.00;;;;;;;24.80;67.98;101627.06;5009365;28;20052;-76
2023/08/07 09:37:23;;;;;;;0.00;0.00;;;;;;;25.19;71.27;101633.28;5021061;28;20049;-76
2023/08/07 09:39:48;;;;;;;0.00;0.00;;;;;;;25.33;65.64;101633.66;5021600;28;20117;-75
2023/08/07 09:42:15;;;;;;;0.00;0.00;;;;;;;25.55;63.92;101636.38;5021609;28;20061;-76
2023/08/07 09:44:40;;;;;;;0.00;0.00;;;;;;;25.44;63.58;101640.13;5025760;28;20034;-77
2023/08/07 09:47:13;;;;;;;0.00;0.00;;;;;;;25.37;62.09;101646.66;5014924;28;20040;-77
2023/08/07 09:49:39;;;;;;;0.00;0.00;;;;;;;25.69;59.62;101651.34;5013507;28;20184;-77
2023/08/07 09:52:09;;;;;;;0.00;0.00;;;;;;;25.86;61.00;101651.25;5015212;28;20530;-77
2023/08/07 09:54:34;;;;;;;0.00;0.00;;;;;;;26.04;61.34;101663.75;5013124;28;20424;-77
2023/08/07 09:57:01;;;;;;;0.00;0.00;;;;;;;26.15;59.62;101668.25;5012791;28;20034;-76
2023/08/07 09:59:27;;;;;;;0.00;0.00;;;;;;;26.43;62.45;101657.91;5011637;28;20053;-77
2023/08/07 10:01:54;;;;;;;0.00;0.00;;;;;;;26.23;59.23;101662.25;5012059;28;20473;-77
2023/08/07 10:04:20;;;;;;;0.00;0.00;;;;;;;25.57;58.54;101653.47;5011392;28;20022;-76
2023/08/07 10:06:46;;;;;;;0.00;0.00;;;;;;;25.94;62.95;101659.03;5012617;28;20041;-77
2023/08/07 10:09:11;;;;;;;0.00;0.00;;;;;;;26.10;62.12;101664.66;5010817;28;20030;-77
2023/08/07 10:11:38;;;;;;;0.00;0.00;;;;;;;26.04;62.11;101667.38;5009613;28;20042;-77
2023/08/07 10:14:04;;;;;;;0.00;0.00;;;;;;;26.25;58.61;101670.22;5012102;28;20064;-77
2023/08/07 10:16:30;;;;;;;0.00;0.00;;;;;;;26.30;57.60;101661.97;5013752;28;20069;-76
2023/08/07 10:18:55;;;;;;;0.00;0.00;;;;;;;26.16;61.96;101663.56;5010410;28;20472;-75
2023/08/07 10:21:22;;;;;;;0.00;0.00;;;;;;;25.70;60.01;101665.97;5004918;28;20109;-76
2023/08/07 10:23:48;;;;;;;0.00;0.00;;;;;;;25.95;60.59;101659.84;5007428;28;20053;-75
2023/08/07 10:26:14;;;;;;;0.00;0.00;;;;;;;26.00;58.43;101669.00;5007696;28;20030;-76
2023/08/07 10:28:40;;;;;;;0.00;0.00;;;;;;;25.69;60.15;101675.34;5002952;28;20036;-75
2023/08/07 10:31:09;;;;;;;0.00;0.00;;;;;;;25.87;61.80;101660.34;5013317;28;20447;-75
2023/08/07 10:33:35;;;;;;;0.00;0.00;;;;;;;25.87;63.00;101666.69;5014185;28;20096;-75
2023/08/07 10:36:08;;;;;;;0.00;0.00;;;;;;;25.63;62.24;101675.28;5013883;28;20041;-75
2023/08/07 10:38:35;;;;;;;0.00;0.00;;;;;;;25.74;63.40;101669.88;5001410;28;20588;-75
2023/08/07 10:41:14;;;;;;;0.00;0.00;;;;;;;25.92;62.99;101674.19;5015042;28;20503;-75
2023/08/07 10:43:43;;;;;;;0.00;0.00;;;;;;;25.87;61.49;101671.38;5015560;28;20080;-75
2023/08/07 10:46:11;;;;;;;0.00;0.00;;;;;;;25.81;64.32;101681.50;5015937;28;20022;-75
2023/08/07 10:48:47;;;;;;;0.00;0.00;;;;;;;26.10;60.62;101676.50;5016248;28;20148;-76
2023/08/07 10:51:17;;;;;;;0.00;0.00;;;;;;;26.13;59.86;101678.72;5015419;28;20509;-76
2023/08/07 10:53:45;;;;;;;0.00;0.00;;;;;;;26.40;58.86;101675.00;5014948;28;20384;-76
2023/08/07 10:56:34;;;;;;;0.00;0.00;;;;;;;26.62;58.75;101669.34;5015430;28;20100;-76
2023/08/07 10:59:08;;;;;;;0.00;0.00;;;;;;;26.26;57.15;101674.66;5015390;28;20109;-76
2023/08/07 11:01:33;;;;;;;0.00;0.00;;;;;;;26.01;59.14;101683.59;5014442;28;20488;-77
2023/08/07 11:04:00;;;;;;;0.00;0.00;;;;;;;25.61;59.87;101663.69;5014852;28;20030;-76
2023/08/07 11:06:28;;;;;;;0.00;0.00;;;;;;;25.56;59.25;101674.66;5014955;28;20464;-76
2023/08/07 11:08:54;;;;;;;0.00;0.00;;;;;;;25.93;57.96;101668.38;5014773;28;20376;-76
2023/08/07 11:11:19;;;;;;;0.00;0.00;;;;;;;26.21;58.25;101682.91;5014496;28;20022;-75
2023/08/07 11:13:45;;;;;;;0.00;0.00;;;;;;;25.83;58.91;101671.06;5014051;28;20088;-75